createdAt,value
2022-08-05T03:21:20.503Z,8.13
2022-08-05T03:32:05.909Z,7.70
2022-08-05T05:48:18.460Z,4.07
2022-08-05T05:50:58.264Z,4.87
2022-08-05T05:53:28.121Z,4.50
2022-08-05T05:56:03.299Z,4.87
2022-08-05T05:58:39.073Z,4.40
2022-08-05T06:01:23.482Z,4.50
2022-08-05T06:04:01.558Z,4.47
2022-08-05T06:06:36.346Z,4.67
2022-08-05T06:10:04.484Z,4.97
2022-08-05T06:12:56.998Z,4.40
2022-08-05T06:16:30.168Z,4.47
2022-08-05T06:18:42.281Z,4.30
2022-08-05T06:21:52.386Z,4.27
2022-08-05T06:24:27.239Z,4.37
2022-08-05T06:26:55.018Z,4.07
2022-08-05T06:29:43.216Z,4.50
2022-08-05T06:32:25.214Z,4.07
2022-08-05T06:34:56.826Z,4.03
2022-08-05T06:37:58.097Z,3.70
2022-08-05T06:40:21.108Z,4.10
2022-08-05T06:42:52.260Z,3.80
2022-08-05T06:45:44.413Z,4.30
2022-08-05T06:48:36.901Z,3.70
2022-08-05T06:50:55.918Z,4.63
2022-08-05T06:53:28.474Z,4.30
2022-08-05T06:56:00.153Z,4.00
2022-08-05T06:58:34.950Z,3.90
2022-08-05T07:01:06.298Z,4.60
2022-08-05T07:03:34.717Z,4.07
2022-08-05T07:06:14.188Z,4.03
2022-08-05T07:08:47.764Z,4.20
2022-08-05T07:11:28.852Z,3.97
2022-08-05T07:14:19.992Z,4.40
2022-08-05T07:17:58.981Z,4.00
2022-08-05T07:22:31.102Z,4.03
2022-08-05T07:25:23.376Z,4.20
2022-08-05T07:27:56.529Z,4.00
2022-08-05T07:30:32.790Z,3.60
2022-08-05T07:33:05.383Z,4.87
2022-08-05T07:36:02.371Z,3.87
2022-08-05T07:38:33.008Z,4.17
2022-08-05T07:42:09.547Z,4.87
2022-08-05T07:44:00.434Z,5.03
2022-08-05T07:46:30.644Z,4.60
2022-08-05T07:49:05.978Z,4.43
2022-08-05T07:51:40.984Z,4.23
2022-08-05T07:54:47.757Z,4.30
2022-08-05T07:57:41.419Z,4.13
2022-08-05T08:00:11.588Z,4.60
2022-08-05T08:03:14.050Z,4.27
2022-08-05T08:05:30.973Z,4.50
2022-08-05T08:08:06.683Z,4.37
2022-08-05T08:11:00.370Z,4.63
2022-08-05T08:13:29.316Z,4.40
2022-08-05T08:16:35.401Z,4.77
2022-08-05T08:18:50.223Z,5.00
2022-08-05T08:21:18.054Z,5.07
2022-08-05T08:24:01.846Z,4.90
2022-08-05T08:26:35.818Z,4.90
2022-08-05T08:29:45.563Z,5.03
2022-08-05T08:32:19.137Z,4.97
2022-08-05T08:34:55.380Z,4.20
2022-08-05T08:37:27.854Z,5.40
2022-08-05T08:39:55.256Z,4.30
2022-08-05T08:42:34.198Z,5.20
2022-08-05T08:45:27.157Z,5.50
2022-08-05T08:48:12.670Z,4.70
2022-08-05T08:51:04.052Z,5.73
2022-08-05T08:53:44.298Z,4.73
2022-08-05T08:56:12.575Z,5.00
2022-08-05T08:58:44.556Z,5.03
2022-08-05T09:01:17.700Z,4.60
2022-08-05T09:03:57.558Z,4.50
2022-08-05T09:06:30.643Z,5.00
2022-08-05T09:09:02.052Z,4.43
2022-08-05T09:11:52.860Z,3.90
2022-08-05T09:14:59.128Z,4.67
2022-08-05T09:17:42.717Z,4.10
2022-08-05T09:20:02.503Z,4.40
2022-08-05T09:23:19.405Z,3.53
2022-08-05T09:26:01.797Z,3.93
2022-08-05T09:28:33.409Z,3.93
2022-08-05T09:31:23.193Z,3.90
2022-08-05T09:33:59.041Z,3.60
2022-08-05T09:36:38.330Z,3.73
2022-08-05T09:39:18.056Z,3.60
2022-08-05T09:42:24.558Z,3.70
2022-08-05T09:45:03.551Z,3.37
2022-08-05T09:47:55.024Z,3.23
2022-08-05T09:50:44.197Z,3.50
2022-08-05T09:53:23.033Z,3.20
2022-08-05T09:56:04.878Z,3.37
2022-08-05T09:58:38.217Z,2.77
2022-08-05T10:01:15.437Z,3.17
2022-08-05T10:04:10.379Z,2.97
2022-08-05T10:06:40.877Z,2.93
2022-08-05T10:09:27.606Z,2.90
2022-08-05T10:12:30.374Z,2.87
2022-08-05T10:15:24.254Z,2.83
2022-08-05T10:18:17.330Z,2.40
2022-08-05T10:20:49.071Z,2.50
2022-08-05T10:23:55.844Z,2.30
2022-08-05T10:26:14.402Z,2.40
2022-08-05T10:28:44.883Z,2.43
2022-08-05T10:32:47.911Z,1.90
2022-08-05T10:34:01.856Z,2.20
2022-08-05T10:36:29.705Z,1.93
2022-08-05T10:39:05.285Z,2.30
2022-08-05T10:41:47.531Z,2.27
2022-08-05T10:44:18.913Z,2.07
2022-08-05T10:46:54.253Z,1.93
2022-08-05T10:49:27.031Z,2.30
2022-08-05T10:52:02.520Z,1.80
2022-08-05T10:55:04.243Z,1.77
2022-08-05T10:57:33.697Z,1.67
2022-08-05T11:00:22.797Z,1.83
2022-08-05T11:03:23.327Z,1.60
2022-08-05T11:06:15.913Z,1.93
2022-08-05T11:09:16.471Z,1.50
2022-08-05T11:11:53.404Z,1.67
2022-08-05T11:14:49.344Z,1.43
2022-08-05T11:17:58.950Z,1.40
2022-08-05T11:20:46.136Z,1.57
2022-08-05T11:24:03.031Z,1.43
2022-08-05T11:26:29.154Z,1.40
2022-08-05T11:29:12.634Z,1.33
2022-08-05T11:31:57.714Z,1.50
2022-08-05T11:34:47.599Z,1.63
2022-08-05T11:38:37.369Z,1.60
2022-08-05T11:41:01.359Z,1.70
2022-08-05T11:44:07.001Z,1.30
2022-08-05T11:47:09.155Z,1.47
2022-08-05T11:49:28.792Z,1.63
2022-08-05T11:52:01.190Z,1.40
2022-08-05T11:54:33.284Z,1.53
2022-08-05T11:57:07.622Z,1.43
2022-08-05T11:59:50.635Z,1.60
2022-08-05T12:02:29.781Z,1.53
2022-08-05T12:05:00.190Z,1.73
2022-08-05T12:08:08.457Z,2.17
2022-08-05T12:10:23.122Z,2.50
2022-08-05T12:12:59.397Z,2.50
2022-08-05T12:15:37.919Z,2.50
2022-08-05T12:18:10.866Z,2.23
2022-08-05T12:20:39.430Z,2.40
2022-08-05T12:23:11.454Z,2.40
2022-08-05T12:25:56.515Z,2.40
2022-08-05T12:28:36.951Z,2.87
2022-08-05T12:31:05.616Z,2.60
2022-08-05T12:33:36.383Z,2.57
2022-08-05T12:36:07.094Z,2.93
2022-08-05T12:38:41.220Z,2.70
2022-08-05T12:41:16.383Z,2.40
2022-08-05T12:43:58.807Z,2.87
2022-08-05T12:46:31.365Z,2.67
2022-08-05T12:48:59.313Z,2.70
2022-08-05T12:52:10.707Z,2.53
2022-08-05T12:54:37.235Z,2.53
2022-08-05T12:57:09.419Z,2.20
2022-08-05T13:01:58.594Z,2.30
2022-08-05T13:02:36.407Z,2.07
2022-08-05T13:05:06.652Z,1.83
2022-08-05T13:07:59.287Z,1.80
2022-08-05T13:10:21.308Z,1.90
2022-08-05T13:12:51.039Z,1.90
2022-08-05T13:15:42.117Z,1.90
2022-08-05T13:18:19.526Z,2.30
2022-08-05T13:20:47.379Z,2.10
2022-08-05T13:23:18.263Z,2.30
2022-08-05T13:25:52.412Z,2.20
2022-08-05T13:28:25.980Z,1.90
2022-08-05T13:30:53.401Z,2.10
2022-08-05T13:34:21.144Z,2.20
2022-08-05T13:36:09.531Z,2.50
2022-08-05T13:38:41.980Z,2.80
2022-08-05T13:41:10.929Z,2.50
2022-08-05T13:43:44.046Z,2.20
2022-08-05T13:46:13.761Z,2.80
2022-08-05T13:48:57.741Z,2.30
2022-08-05T13:51:40.090Z,2.80
2022-08-05T13:54:12.646Z,2.70
2022-08-05T13:56:45.114Z,2.50
2022-08-05T13:59:21.346Z,2.40
2022-08-05T14:01:56.440Z,2.50
2022-08-05T14:04:43.250Z,2.40
2022-08-05T14:07:25.653Z,2.40
2022-08-05T14:10:08.428Z,2.40
2022-08-05T14:12:36.100Z,2.50
2022-08-05T14:15:05.849Z,2.60
2022-08-05T14:17:50.476Z,2.27
2022-08-05T14:20:21.846Z,2.70
2022-08-05T14:23:00.693Z,2.53
2022-08-05T14:25:30.265Z,3.00
2022-08-05T14:27:58.533Z,2.93
2022-08-05T14:30:26.671Z,3.07
2022-08-05T14:32:54.933Z,2.80
2022-08-05T14:35:23.907Z,2.90
2022-08-05T14:38:04.739Z,2.50
2022-08-05T14:40:31.625Z,2.70
2022-08-05T14:43:00.976Z,2.67
2022-08-05T14:45:28.048Z,3.07
2022-08-05T14:48:03.857Z,3.17
2022-08-05T14:50:39.794Z,3.03
2022-08-05T14:53:07.663Z,2.50
2022-08-05T14:55:39.130Z,2.73
2022-08-05T14:58:11.975Z,2.80
2022-08-05T15:00:58.800Z,2.77
2022-08-05T15:03:33.241Z,2.60
2022-08-05T15:06:08.126Z,2.67
2022-08-05T15:08:59.688Z,2.83
2022-08-05T15:11:53.254Z,2.57
2022-08-05T15:14:33.952Z,2.80
2022-08-05T15:17:04.782Z,2.73
2022-08-05T15:19:32.460Z,3.07
2022-08-05T15:22:01.428Z,2.70
2022-08-05T15:24:29.632Z,2.97
2022-08-05T15:26:57.885Z,2.87
2022-08-05T15:29:30.028Z,2.50
2022-08-05T15:32:03.206Z,3.23
2022-08-05T15:34:33.918Z,2.70
2022-08-05T15:37:06.233Z,2.73
2022-08-05T15:40:58.245Z,2.73
2022-08-05T15:42:53.478Z,3.00
2022-08-05T15:45:11.368Z,3.30
2022-08-05T15:47:39.133Z,2.70
2022-08-05T15:50:08.290Z,2.80
2022-08-05T15:52:53.440Z,3.17
2022-08-05T15:55:24.539Z,3.10
2022-08-05T15:58:16.437Z,2.93
2022-08-05T16:00:50.910Z,3.10
2022-08-05T16:03:32.786Z,2.80
2022-08-05T16:06:01.276Z,2.97
2022-08-05T16:08:30.379Z,3.57
2022-08-05T16:10:58.244Z,2.97
2022-08-05T16:13:31.848Z,3.27
2022-08-05T16:16:03.309Z,3.80
2022-08-05T16:18:33.051Z,3.20
2022-08-05T16:21:04.197Z,2.80
2022-08-05T16:23:53.256Z,3.33
2022-08-05T16:26:26.186Z,3.50
2022-08-05T16:28:54.486Z,3.73
2022-08-05T16:31:24.467Z,3.50
2022-08-05T16:33:53.740Z,3.57
2022-08-05T16:36:23.716Z,3.10
2022-08-05T16:38:55.013Z,3.07
2022-08-05T16:42:15.302Z,3.60
2022-08-05T16:44:11.671Z,3.00
2022-08-05T16:46:41.035Z,3.23
2022-08-05T16:49:09.965Z,3.63
2022-08-05T16:51:42.692Z,3.50
2022-08-05T16:54:24.915Z,4.10
2022-08-05T16:56:54.643Z,3.60
2022-08-05T16:59:23.021Z,3.47
2022-08-05T17:01:53.862Z,3.90
2022-08-05T17:04:29.702Z,3.87
2022-08-05T17:07:01.321Z,3.97
2022-08-05T17:09:30.068Z,4.27
2022-08-05T17:12:00.766Z,3.80
2022-08-05T17:14:34.289Z,3.87
2022-08-05T17:17:06.514Z,3.97
2022-08-05T17:19:36.933Z,3.80
2022-08-05T17:22:04.202Z,3.97
2022-08-05T17:24:39.119Z,4.30
2022-08-05T17:27:16.172Z,4.00
2022-08-05T17:29:43.568Z,3.67
2022-08-05T17:32:16.702Z,4.40
2022-08-05T17:34:47.869Z,4.20
2022-08-05T17:37:40.803Z,4.20
2022-08-05T17:40:12.774Z,3.90
2022-08-05T17:42:49.775Z,4.20
2022-08-05T17:45:21.501Z,3.97
2022-08-05T17:47:55.882Z,3.83
2022-08-05T17:50:30.381Z,3.57
2022-08-05T17:53:08.505Z,4.30
2022-08-05T17:55:39.603Z,4.47
2022-08-05T17:58:10.910Z,4.00
2022-08-05T18:00:45.043Z,4.53
2022-08-05T18:03:59.308Z,3.80
2022-08-05T18:06:15.050Z,4.27
2022-08-05T18:08:46.136Z,4.13
2022-08-05T18:11:24.113Z,4.40
2022-08-05T18:14:06.741Z,4.47
2022-08-05T18:16:35.324Z,4.63
2022-08-05T18:19:14.541Z,4.50
2022-08-05T18:22:07.778Z,4.50
2022-08-05T18:24:28.999Z,4.80
2022-08-05T18:26:59.262Z,4.73
2022-08-05T18:29:40.881Z,4.70
2022-08-05T18:32:13.027Z,4.60
2022-08-05T18:34:42.864Z,4.90
2022-08-05T18:37:12.240Z,4.40
2022-08-05T18:40:29.655Z,4.43
2022-08-05T18:42:27.791Z,4.47
2022-08-05T18:45:11.836Z,4.73
2022-08-05T18:47:39.088Z,4.60
2022-08-05T18:50:44.852Z,4.60
2022-08-05T18:53:20.615Z,5.03
2022-08-05T18:55:51.934Z,5.40
2022-08-05T18:58:28.541Z,4.93
2022-08-05T19:01:02.247Z,5.43
2022-08-05T19:03:55.787Z,5.37
2022-08-05T19:06:37.057Z,5.20
2022-08-05T19:09:04.733Z,6.00
2022-08-05T19:12:00.275Z,5.13
2022-08-05T19:14:53.271Z,5.00
